Time;durP1;ratioP1;P1;durP2;ratioP2;P2;SDS_P1;SDS_P2;PMS_P1;PMS_P2;Temp;Humidity;BMP_temperature;BMP_pressure;BME280_temperature;BME280_humidity;BME280_pressure;Samples;Min_cycle;Max_cycle;Signal;HPM_P1;HPM_P2
2023/02/27 00:00:27;;;;;;;3.70;3.40;;;-1.60;99.90;;;-1.16;73.55;98324.19;5256366;28;20201;-66
2023/02/27 00:03:00;;;;;;;4.10;3.90;;;-1.60;99.90;;;-1.11;73.68;98317.19;5262256;28;20199;-66
2023/02/27 00:05:33;;;;;;;4.27;3.97;;;-1.60;99.90;;;-1.19;74.87;98328.88;5257502;28;20286;-65
2023/02/27 00:08:06;;;;;;;4.03;3.73;;;-1.60;99.90;;;-1.20;74.45;98319.59;5254650;28;20223;-66
2023/02/27 00:10:39;;;;;;;4.83;4.40;;;-1.60;99.90;;;-1.08;73.17;98325.91;5254000;28;20219;-65
2023/02/27 00:13:12;;;;;;;4.20;3.90;;;-1.60;99.90;;;-0.87;73.12;98324.84;5252418;28;20212;-65
2023/02/27 00:15:49;;;;;;;4.17;3.87;;;-1.40;99.90;;;-1.06;74.19;98328.56;5258236;28;20219;-65
2023/02/27 00:18:22;;;;;;;4.10;3.90;;;-1.50;99.90;;;-1.07;73.55;98330.19;5256244;28;20272;-65
2023/02/27 00:20:55;;;;;;;4.07;3.87;;;-1.50;99.90;;;-1.19;72.93;98324.75;5254407;28;20253;-65
2023/02/27 00:23:28;;;;;;;4.30;3.90;;;-1.60;99.90;;;-1.42;75.07;98328.88;5253933;28;20212;-66
2023/02/27 00:26:01;;;;;;;5.70;4.27;;;-1.70;99.90;;;-1.39;74.52;98325.06;5249620;28;20715;-65
2023/02/27 00:28:34;;;;;;;4.10;3.90;;;-1.70;99.90;;;-1.38;74.55;98326.84;5256812;28;20234;-67
2023/02/27 00:31:09;;;;;;;4.63;4.33;;;-1.70;99.90;;;-1.43;74.74;98322.03;5256561;28;20214;-66
2023/02/27 00:34:00;;;;;;;3.77;3.63;;;-1.80;99.90;;;-1.49;75.67;98321.38;5250461;28;20294;-65
2023/02/27 00:36:33;;;;;;;4.20;3.93;;;-1.80;99.90;;;-1.20;75.62;98329.63;5262562;28;20229;-65
2023/02/27 00:39:06;;;;;;;4.37;4.07;;;-1.70;99.90;;;-1.09;73.64;98331.66;5260807;28;20305;-65
2023/02/27 00:41:39;;;;;;;4.77;3.90;;;-1.60;99.90;;;-1.25;75.45;98328.22;5257503;28;20672;-65
2023/02/27 00:44:12;;;;;;;4.57;4.37;;;-1.70;99.90;;;-1.32;75.56;98330.75;5263409;28;20207;-66
2023/02/27 00:46:46;;;;;;;4.30;3.70;;;-1.70;99.90;;;-1.39;76.22;98330.09;5254250;28;20222;-66
2023/02/27 00:49:19;;;;;;;3.90;3.60;;;-1.80;99.90;;;-1.50;75.36;98330.50;5255401;28;20731;-65
2023/02/27 00:51:53;;;;;;;4.63;4.23;;;-1.80;99.90;;;-1.59;76.02;98337.03;5258363;28;20210;-65
2023/02/27 00:54:26;;;;;;;4.23;3.93;;;-1.90;99.90;;;-1.46;75.12;98330.16;5263790;28;20195;-66
2023/02/27 00:56:59;;;;;;;4.40;4.20;;;-1.80;99.90;;;-1.21;75.09;98328.69;5258054;28;20224;-66
2023/02/27 00:59:32;;;;;;;4.10;3.80;;;-1.60;99.90;;;-1.39;76.01;98325.06;5256809;28;20294;-65
2023/02/27 01:02:06;;;;;;;4.10;3.80;;;-1.70;99.90;;;-1.36;75.84;98330.41;5255294;28;20210;-67
2023/02/27 01:04:40;;;;;;;4.43;4.07;;;-1.70;99.90;;;-1.42;75.81;98328.88;5261154;28;20206;-66
2023/02/27 01:07:13;;;;;;;3.87;3.67;;;-1.80;99.90;;;-1.46;75.67;98326.72;5261812;28;20298;-66
2023/02/27 01:09:46;;;;;;;4.23;3.93;;;-1.90;99.90;;;-1.39;75.97;98327.56;5262999;28;20544;-65
2023/02/27 01:12:19;;;;;;;4.50;4.20;;;-1.90;99.90;;;-1.32;76.68;98328.25;5263741;28;20204;-66
2023/02/27 01:14:52;;;;;;;4.80;4.50;;;-1.80;99.90;;;-1.25;75.15;98333.22;5261510;28;20201;-66
2023/02/27 01:17:27;;;;;;;4.13;3.83;;;-1.70;99.90;;;-1.52;75.85;98324.44;5261551;28;20220;-66
2023/02/27 01:20:00;;;;;;;4.80;4.30;;;-1.80;99.90;;;-1.53;76.27;98327.66;5262682;28;20204;-66
2023/02/27 01:22:33;;;;;;;4.10;3.90;;;-2.00;99.90;;;-1.46;77.62;98327.66;5260155;28;20210;-65
2023/02/27 01:25:08;;;;;;;4.37;4.07;;;-1.90;99.90;;;-1.30;76.47;98326.81;5259907;28;20245;-66
2023/02/27 01:27:41;;;;;;;4.20;3.83;;;-1.80;99.90;;;-1.50;76.82;98324.63;5265385;28;20620;-66
2023/02/27 01:30:15;;;;;;;4.57;4.23;;;-1.90;99.90;;;-1.36;76.97;98330.41;5261466;28;20196;-66
2023/02/27 01:32:50;;;;;;;4.27;3.97;;;-1.80;99.90;;;-1.32;77.48;98326.63;5258428;28;20203;-66
2023/02/27 01:35:22;;;;;;;4.17;3.97;;;-1.80;99.90;;;-1.57;77.01;98325.56;5259145;28;20678;-66
2023/02/27 01:37:56;;;;;;;4.80;4.50;;;-1.90;99.90;;;-1.52;76.58;98319.41;5260225;28;20629;-64
2023/02/27 01:40:29;;;;;;;4.40;4.07;;;-1.90;99.90;;;-1.31;76.87;98328.44;5262858;28;20208;-65
2023/02/27 01:43:02;;;;;;;4.63;4.33;;;-1.80;99.90;;;-1.38;78.04;98334.38;5257041;28;20200;-65
2023/02/27 01:45:36;;;;;;;4.60;4.30;;;-1.80;99.90;;;-1.29;76.98;98334.47;5258746;28;20200;-65
2023/02/27 01:48:17;;;;;;;5.00;4.60;;;-1.70;99.90;;;-1.28;77.85;98322.88;5257662;28;20228;-66
2023/02/27 01:50:53;;;;;;;4.43;4.13;;;-1.70;99.90;;;-1.41;77.42;98330.63;5261679;28;20215;-65
2023/02/27 01:53:28;;;;;;;4.80;4.50;;;-1.80;99.90;;;-1.50;78.98;98325.50;5255445;28;20872;-66
2023/02/27 01:56:09;;;;;;;4.97;4.47;;;-1.90;99.90;;;-1.11;76.60;98335.63;5258644;28;20733;-65
2023/02/27 01:58:43;;;;;;;4.67;4.37;;;-1.60;99.90;;;-1.43;78.13;98333.00;5256335;28;20239;-65
2023/02/27 02:01:17;;;;;;;5.40;4.90;;;-1.70;99.90;;;-1.23;76.94;98317.63;5257866;28;20205;-65
2023/02/27 02:04:01;;;;;;;5.77;4.77;;;-1.60;99.90;;;-1.21;77.68;98323.69;5258463;28;20200;-66
2023/02/27 02:06:38;;;;;;;5.00;4.20;;;-1.50;99.90;;;-1.47;77.48;98315.81;5261017;28;20220;-66
2023/02/27 02:09:13;;;;;;;4.97;4.67;;;-1.70;99.90;;;-1.69;78.64;98311.66;5257587;28;20204;-66
2023/02/27 02:11:46;;;;;;;5.10;4.70;;;-1.90;99.90;;;-1.39;77.72;98320.06;5255742;28;20199;-66
2023/02/27 02:14:19;;;;;;;5.17;4.87;;;-1.70;99.90;;;-1.49;79.46;98314.75;5255529;28;20204;-65
2023/02/27 02:17:09;;;;;;;4.50;4.20;;;-1.80;99.90;;;-1.53;78.87;98319.28;5259475;28;20682;-65
2023/02/27 02:20:34;;;;;;;5.37;5.07;;;-1.80;99.90;;;-1.89;81.49;98317.88;5259239;28;20196;-66
2023/02/27 02:24:04;;;;;;;4.90;4.50;;;-2.00;99.90;;;-1.79;79.55;98318.88;5253224;28;20583;-65
2023/02/27 02:26:51;;;;;;;5.57;5.10;;;-1.90;99.90;;;-1.81;80.70;98317.09;5214932;28;20215;-65
2023/02/27 02:30:13;;;;;;;5.20;4.80;;;-2.00;99.90;;;-1.64;78.89;98318.06;5261568;28;20200;-66
2023/02/27 02:33:19;;;;;;;5.57;5.07;;;-1.90;99.90;;;-1.55;79.24;98321.59;5254680;28;20206;-66
2023/02/27 02:37:00;;;;;;;4.70;4.30;;;-1.90;99.90;;;-1.74;81.06;98318.69;5255756;28;20290;-66
2023/02/27 02:39:56;;;;;;;5.10;4.80;;;-2.00;99.90;;;-1.73;80.44;98317.06;5257417;28;20688;-66
2023/02/27 02:42:36;;;;;;;5.10;4.70;;;-2.00;99.90;;;-1.79;81.14;98316.38;5255691;28;20196;-66
2023/02/27 02:45:18;;;;;;;5.07;4.77;;;-2.00;99.90;;;-1.81;80.50;98317.09;5254034;28;20193;-67
2023/02/27 02:48:04;;;;;;;5.47;4.97;;;-2.10;99.90;;;-1.77;79.97;98317.41;5257481;28;20224;-65
2023/02/27 02:50:45;;;;;;;7.00;4.60;;;-2.10;99.90;;;-1.76;81.46;98314.22;5257240;28;20294;-65
2023/02/27 02:53:29;;;;;;;5.60;5.10;;;-2.20;99.90;;;-1.71;79.80;98313.13;5257074;28;20207;-66
2023/02/27 02:56:21;;;;;;;5.33;4.93;;;-2.10;99.90;;;-1.74;79.83;98310.28;5251842;28;20204;-66
2023/02/27 02:59:01;;;;;;;5.40;4.90;;;-2.10;99.90;;;-1.74;81.20;98312.78;5258732;28;20191;-66
2023/02/27 03:01:39;;;;;;;5.43;5.03;;;-2.10;99.90;;;-1.69;81.26;98324.19;5255814;28;20200;-66
2023/02/27 03:04:18;;;;;;;5.17;4.73;;;-2.10;99.90;;;-1.60;80.40;98325.22;5258504;28;20201;-66
2023/02/27 03:06:59;;;;;;;5.10;4.80;;;-1.90;99.90;;;-1.88;82.42;98327.16;5256580;28;20349;-65
2023/02/27 03:09:37;;;;;;;5.27;4.87;;;-2.10;99.90;;;-1.85;81.67;98321.59;5251020;28;20196;-66
2023/02/27 03:12:17;;;;;;;5.60;5.20;;;-2.10;99.90;;;-1.62;81.38;98322.53;5253452;28;20196;-64
2023/02/27 03:14:56;;;;;;;4.97;4.67;;;-2.10;99.90;;;-2.02;82.11;98319.72;5258310;28;20713;-65
2023/02/27 03:17:40;;;;;;;5.23;4.93;;;-2.20;99.90;;;-1.66;81.44;98312.00;5260137;28;20223;-66
2023/02/27 03:20:19;;;;;;;5.40;5.00;;;-1.90;99.90;;;-1.76;81.05;98316.72;5256912;28;20203;-66
2023/02/27 03:22:57;;;;;;;5.87;5.40;;;-2.10;99.90;;;-1.65;80.88;98308.78;5254459;28;20195;-65
2023/02/27 03:25:31;;;;;;;7.20;6.53;;;-2.00;99.90;;;-1.55;80.23;98328.22;5247666;28;20208;-65
2023/02/27 03:28:10;;;;;;;5.67;5.27;;;-1.80;99.90;;;-1.73;80.45;98329.59;5253601;28;20215;-64
2023/02/27 03:30:50;;;;;;;5.90;5.40;;;-1.90;99.90;;;-1.72;81.73;98336.38;5256605;28;20211;-65
2023/02/27 03:33:30;;;;;;;5.93;5.43;;;-2.10;99.90;;;-1.74;81.90;98337.84;5258541;28;20249;-65
2023/02/27 03:36:09;;;;;;;5.63;5.33;;;-2.10;99.90;;;-1.68;81.74;98326.88;5252725;28;20203;-65
2023/02/27 03:38:49;;;;;;;6.30;5.37;;;-2.00;99.90;;;-1.42;79.99;98333.88;5254383;28;20697;-65
2023/02/27 03:41:31;;;;;;;5.67;5.27;;;-1.80;99.90;;;-1.78;81.61;98340.69;5248998;28;20193;-65
2023/02/27 03:44:11;;;;;;;6.60;5.33;;;-2.10;99.90;;;-1.94;82.41;98341.50;5255755;28;20545;-65
2023/02/27 03:46:44;;;;;;;5.23;4.83;;;-2.20;99.90;;;-1.73;81.39;98338.00;5260329;28;20590;-65
2023/02/27 03:49:18;;;;;;;5.40;5.00;;;-2.10;99.90;;;-1.88;81.49;98333.78;5250189;28;20197;-65
2023/02/27 03:51:51;;;;;;;5.23;4.83;;;-2.00;99.90;;;-1.89;82.07;98342.91;5253556;28;20662;-65
2023/02/27 03:54:30;;;;;;;5.43;4.97;;;-2.10;99.90;;;-1.90;83.46;98333.59;5251314;28;20332;-65
2023/02/27 03:57:06;;;;;;;5.33;4.93;;;-2.20;99.90;;;-2.02;82.79;98338.84;5255184;28;20222;-65
2023/02/27 03:59:41;;;;;;;5.67;5.17;;;-2.20;99.90;;;-2.22;84.80;98355.03;5261632;28;20199;-64
2023/02/27 04:02:15;;;;;;;5.67;5.27;;;-2.30;99.90;;;-2.00;83.86;98338.31;5258948;28;20209;-67
2023/02/27 04:04:48;;;;;;;5.57;5.17;;;-2.30;99.90;;;-2.02;83.09;98342.25;5260694;28;20409;-66
2023/02/27 04:07:31;;;;;;;5.87;5.27;;;-2.30;99.90;;;-2.07;83.48;98341.72;5257508;28;20693;-66
2023/02/27 04:10:23;;;;;;;6.20;5.60;;;-2.40;99.90;;;-2.15;84.50;98356.59;5260839;28;20222;-65
2023/02/27 04:13:20;;;;;;;5.40;4.90;;;-2.30;99.90;;;-1.82;83.83;98340.38;5261821;28;20620;-65
2023/02/27 04:16:16;;;;;;;5.83;5.43;;;-2.10;99.90;;;-1.89;82.59;98345.41;5262703;28;20200;-66
2023/02/27 04:19:06;;;;;;;5.80;5.30;;;-2.20;99.90;;;-1.75;82.62;98358.56;5264529;28;20211;-66
2023/02/27 04:21:49;;;;;;;5.50;5.00;;;-2.20;99.90;;;-1.88;82.73;98353.81;5263773;28;20610;-65
2023/02/27 04:24:36;;;;;;;5.87;5.40;;;-2.20;99.90;;;-1.86;82.95;98350.78;5265387;28;20235;-65
2023/02/27 04:27:20;;;;;;;5.33;4.93;;;-2.20;99.90;;;-1.66;82.20;98352.09;5263358;28;20224;-66
2023/02/27 04:30:01;;;;;;;5.67;5.17;;;-2.20;99.90;;;-1.79;81.84;98349.84;5261634;28;20226;-65
2023/02/27 04:32:40;;;;;;;5.40;5.10;;;-2.30;99.90;;;-1.75;83.34;98351.06;5261825;28;20199;-65
2023/02/27 04:35:20;;;;;;;6.23;5.40;;;-2.20;99.90;;;-1.98;82.39;98345.97;5263581;28;20625;-65
2023/02/27 04:37:59;;;;;;;5.90;5.43;;;-2.30;99.90;;;-1.81;82.30;98351.28;5258394;28;20219;-66
2023/02/27 04:40:38;;;;;;;5.63;5.20;;;-2.20;99.90;;;-1.69;82.78;98356.75;5259306;28;20203;-65
2023/02/27 04:43:14;;;;;;;5.97;5.53;;;-2.10;99.90;;;-1.70;82.30;98355.88;5260323;28;20199;-64
2023/02/27 04:45:50;;;;;;;5.90;5.40;;;-2.00;99.90;;;-1.68;81.93;98356.06;5262503;28;20196;-65
2023/02/27 04:48:29;;;;;;;5.60;5.20;;;-2.00;99.90;;;-1.68;81.57;98354.44;5262219;28;20234;-65
2023/02/27 04:51:07;;;;;;;6.20;5.80;;;-2.10;99.90;;;-1.70;82.42;98354.97;5263615;28;20200;-65
2023/02/27 04:53:50;;;;;;;5.93;5.53;;;-2.10;99.90;;;-1.69;82.67;98361.75;5264486;28;20196;-64
2023/02/27 04:56:29;;;;;;;6.07;5.50;;;-2.20;99.90;;;-1.79;83.77;98361.47;5255179;28;20196;-65
2023/02/27 04:59:07;;;;;;;6.20;5.60;;;-2.30;99.90;;;-1.65;80.79;98363.91;5259561;28;20226;-65
2023/02/27 05:01:45;;;;;;;6.10;5.57;;;-2.10;99.90;;;-1.89;83.29;98362.03;5259071;28;20291;-65
2023/02/27 05:04:22;;;;;;;6.20;5.70;;;-2.30;99.90;;;-1.74;82.95;98372.91;5262098;28;20710;-65
2023/02/27 05:06:56;;;;;;;6.27;5.63;;;-2.30;99.90;;;-1.85;82.79;98365.06;5262576;28;20223;-64
2023/02/27 05:09:36;;;;;;;6.93;6.03;;;-2.30;99.90;;;-1.88;82.40;98368.84;5260676;28;20196;-64
2023/02/27 05:12:16;;;;;;;6.37;5.87;;;-2.40;99.90;;;-1.76;82.42;98369.34;5260303;28;20195;-65
2023/02/27 05:14:56;;;;;;;5.87;5.27;;;-2.30;99.90;;;-1.70;81.55;98370.91;5259930;28;20249;-64
2023/02/27 05:17:35;;;;;;;6.73;6.23;;;-2.20;99.90;;;-1.65;80.73;98373.94;5262168;28;20346;-64
2023/02/27 05:20:13;;;;;;;6.33;5.80;;;-2.20;99.90;;;-1.95;82.25;98373.88;5259741;28;20204;-64
2023/02/27 05:22:52;;;;;;;6.23;5.73;;;-2.30;99.90;;;-1.94;83.44;98364.03;5262140;28;20196;-65
2023/02/27 05:25:31;;;;;;;6.03;5.47;;;-2.40;99.90;;;-1.87;83.02;98375.63;5259147;28;20192;-65
2023/02/27 05:28:09;;;;;;;6.33;5.77;;;-2.40;99.90;;;-2.09;83.82;98383.25;5263909;28;20697;-65
2023/02/27 05:30:52;;;;;;;6.73;5.70;;;-2.50;99.90;;;-1.93;83.55;98383.34;5262811;28;20207;-65
2023/02/27 05:33:31;;;;;;;6.23;5.63;;;-2.40;99.90;;;-2.10;83.10;98385.56;5257370;28;20219;-65
2023/02/27 05:36:11;;;;;;;6.93;6.33;;;-2.50;99.90;;;-2.06;83.60;98382.66;5258661;28;20210;-65
2023/02/27 05:38:49;;;;;;;6.17;5.70;;;-2.50;99.90;;;-1.89;83.61;98388.00;5270820;22;20228;-60
2023/02/27 05:41:26;;;;;;;7.30;6.33;;;-2.40;99.90;;;-2.02;83.81;98389.84;5234159;28;20299;-60
2023/02/27 05:44:05;;;;;;;7.47;6.80;;;-2.50;99.90;;;-1.98;82.58;98384.44;5240066;28;20197;-60
2023/02/27 05:46:43;;;;;;;7.10;6.50;;;-2.40;99.90;;;-1.92;83.50;98387.63;5239979;28;20341;-60
2023/02/27 05:49:22;;;;;;;7.37;6.83;;;-2.40;99.90;;;-2.16;84.07;98389.88;5230289;28;20204;-61
2023/02/27 05:52:01;;;;;;;6.87;6.30;;;-2.50;99.90;;;-1.93;83.49;98387.47;5236816;28;20222;-60
2023/02/27 05:54:42;;;;;;;6.77;6.17;;;-2.40;99.90;;;-1.98;83.05;98396.97;5238920;28;20212;-61
2023/02/27 05:57:24;;;;;;;6.70;6.20;;;-2.40;99.90;;;-1.97;83.55;98387.84;5234796;28;20236;-61
2023/02/27 06:00:04;;;;;;;6.30;5.90;;;-2.30;99.90;;;-1.86;82.08;98388.34;5235580;28;20224;-61
2023/02/27 06:02:37;;;;;;;6.93;6.33;;;-2.30;99.90;;;-1.87;81.78;98389.03;5236931;28;20247;-61
2023/02/27 06:05:11;;;;;;;6.90;6.37;;;-2.30;99.90;;;-2.00;82.40;98388.41;5239466;28;20232;-61
2023/02/27 06:07:46;;;;;;;7.63;6.93;;;-2.40;99.90;;;-2.04;82.75;98397.16;5241782;28;20335;-61
2023/02/27 06:10:21;;;;;;;7.27;6.57;;;-2.40;99.90;;;-2.06;83.23;98387.69;5241111;28;20211;-61
2023/02/27 06:12:55;;;;;;;6.63;6.13;;;-2.40;99.90;;;-2.01;83.62;98394.09;5237512;28;20227;-61
2023/02/27 06:15:28;;;;;;;6.57;5.87;;;-2.40;99.90;;;-1.87;82.02;98396.56;5239825;28;20579;-61
2023/02/27 06:18:01;;;;;;;6.97;6.27;;;-2.20;99.90;;;-1.82;82.98;98395.47;5240920;28;20319;-61
2023/02/27 06:20:34;;;;;;;7.67;7.00;;;-2.10;99.90;;;-2.03;83.34;98405.59;5241268;28;20221;-60
2023/02/27 06:23:09;;;;;;;7.63;6.83;;;-2.30;99.90;;;-2.01;82.52;98400.72;5250847;28;20595;-61
2023/02/27 06:25:42;;;;;;;7.27;6.77;;;-2.30;99.90;;;-2.24;84.29;98400.63;5241566;28;20224;-61
2023/02/27 06:28:15;;;;;;;8.90;7.37;;;-2.40;99.90;;;-2.21;83.89;98405.97;5229862;28;20474;-60
2023/02/27 06:30:53;;;;;;;6.73;6.23;;;-2.50;99.90;;;-2.09;83.29;98403.28;5242103;28;20235;-60
2023/02/27 06:33:26;;;;;;;6.83;6.30;;;-2.50;99.90;;;-1.91;82.49;98413.59;5239628;28;20925;-59
2023/02/27 06:35:59;;;;;;;7.00;5.90;;;-2.30;99.90;;;-2.07;82.91;98408.44;5238554;28;20236;-60
2023/02/27 06:38:34;;;;;;;8.23;6.63;;;-2.40;99.90;;;-2.07;84.22;98418.47;5235343;28;20232;-61
2023/02/27 06:41:07;;;;;;;7.23;6.53;;;-2.40;99.90;;;-1.93;83.78;98430.94;5240641;28;20208;-59
2023/02/27 06:43:40;;;;;;;7.13;6.53;;;-2.40;99.90;;;-1.86;82.99;98417.47;5238809;28;20291;-59
2023/02/27 06:46:13;;;;;;;7.67;7.07;;;-2.20;99.90;;;-1.63;82.35;98412.56;5239931;28;20211;-59
2023/02/27 06:48:46;;;;;;;6.77;6.17;;;-2.10;99.90;;;-1.28;81.33;98415.63;5233494;28;20232;-61
2023/02/27 06:51:19;;;;;;;7.47;6.83;;;-1.90;99.90;;;-1.13;80.07;98415.69;5235091;28;20212;-61
2023/02/27 06:53:53;;;;;;;6.67;6.13;;;-1.70;99.90;;;-1.04;78.57;98415.81;5237566;28;20517;-60
2023/02/27 06:56:26;;;;;;;6.47;5.90;;;-1.60;99.90;;;-1.08;78.82;98428.75;5235620;28;20652;-59
2023/02/27 06:59:00;;;;;;;6.47;5.80;;;-1.60;99.90;;;-1.13;79.22;98419.81;5240855;28;20224;-59
2023/02/27 07:01:33;;;;;;;7.17;6.50;;;-1.60;99.90;;;-0.76;78.41;98423.88;5244626;28;20738;-61
2023/02/27 07:04:06;;;;;;;6.83;6.23;;;-1.30;99.90;;;-0.53;76.91;98417.22;5243960;28;20216;-61
2023/02/27 07:06:39;;;;;;;6.93;6.43;;;-1.10;99.90;;;-0.28;76.94;98418.25;5238949;28;20244;-61
2023/02/27 07:09:34;;;;;;;6.80;6.30;;;-0.80;99.90;;;-0.06;77.52;98426.47;5234678;28;20213;-61
2023/02/27 07:12:08;;;;;;;6.53;5.93;;;-0.60;99.90;;;0.16;74.09;98436.25;5232595;28;20314;-60
2023/02/27 07:14:42;;;;;;;6.30;5.90;;;-0.40;99.90;;;0.29;74.89;98426.78;5228251;28;20732;-59
2023/02/27 07:17:15;;;;;;;6.73;6.23;;;-0.30;99.90;;;0.53;74.72;98423.41;5231627;28;20711;-61
2023/02/27 07:19:48;;;;;;;6.83;6.33;;;-0.20;99.90;;;0.79;73.48;98423.59;5235251;28;20227;-61
2023/02/27 07:22:21;;;;;;;5.80;5.40;;;0.10;99.90;;;0.87;69.89;98426.94;5241461;28;20219;-60
2023/02/27 07:24:55;;;;;;;6.47;5.97;;;0.20;99.90;;;0.39;71.65;98423.59;5231227;28;20210;-61
2023/02/27 07:27:28;;;;;;;6.37;5.87;;;0.00;99.90;;;0.39;71.35;98424.50;5245933;28;20231;-61
2023/02/27 07:30:01;;;;;;;6.67;6.17;;;-0.10;99.90;;;0.54;72.25;98431.84;5239615;28;20289;-61
2023/02/27 07:32:34;;;;;;;6.53;5.87;;;0.00;99.90;;;0.32;71.60;98432.13;5244545;28;20208;-59
2023/02/27 07:35:09;;;;;;;5.60;5.20;;;0.00;99.90;;;0.38;71.16;98432.78;5242214;28;20281;-61
2023/02/27 07:37:42;;;;;;;6.20;5.70;;;-0.10;99.90;;;0.54;69.51;98429.34;5234861;28;20699;-61
2023/02/27 07:40:17;;;;;;;6.07;5.53;;;0.20;99.90;;;0.73;68.60;98417.06;5245192;28;20231;-61
2023/02/27 07:42:51;;;;;;;6.43;5.93;;;0.30;99.90;;;0.41;69.63;98423.03;5249451;28;20253;-61
2023/02/27 07:45:25;;;;;;;6.13;5.63;;;0.20;99.90;;;0.71;69.57;98421.91;5225335;28;20200;-61
2023/02/27 07:47:58;;;;;;;7.07;6.43;;;0.30;99.90;;;1.20;67.35;98424.44;5235074;28;20229;-61
2023/02/27 07:50:31;;;;;;;6.70;6.07;;;0.80;99.90;;;0.77;68.33;98424.19;5239494;28;20199;-61
2023/02/27 07:53:06;;;;;;;5.73;5.33;;;0.60;99.90;;;1.34;68.79;98429.28;5236322;28;20228;-61
2023/02/27 07:55:41;;;;;;;6.20;5.70;;;1.00;99.90;;;1.56;65.51;98427.28;5243311;28;20200;-61
2023/02/27 07:58:14;;;;;;;5.63;5.23;;;1.30;99.90;;;1.53;64.23;98431.13;5239851;28;20289;-61
2023/02/27 08:00:47;;;;;;;5.97;5.40;;;1.20;99.90;;;1.18;66.34;98436.00;5240520;28;20224;-61
2023/02/27 08:03:20;;;;;;;5.93;5.53;;;0.90;99.90;;;1.18;65.84;98435.13;5237301;28;20203;-61
2023/02/27 08:05:53;;;;;;;6.43;5.90;;;0.80;99.90;;;1.32;65.30;98435.78;5239536;28;20231;-61
2023/02/27 08:08:26;;;;;;;5.53;5.13;;;0.90;99.90;;;1.15;66.21;98433.16;5239277;28;20699;-61
2023/02/27 08:11:01;;;;;;;5.70;5.03;;;0.80;99.90;;;1.72;64.24;98433.88;5241476;28;20647;-61
2023/02/27 08:13:34;;;;;;;6.40;6.00;;;1.30;99.90;;;1.57;63.56;98443.28;5233810;28;20210;-61
2023/02/27 08:16:29;;;;;;;6.00;5.50;;;1.50;99.90;;;1.65;64.47;98431.47;5238584;28;20239;-61
2023/02/27 08:19:03;;;;;;;5.47;5.03;;;1.30;99.90;;;2.04;63.90;98437.06;5236345;28;20189;-61
2023/02/27 08:21:36;;;;;;;5.17;4.67;;;1.60;99.90;;;1.63;63.74;98438.88;5232558;28;20673;-61
2023/02/27 08:24:09;;;;;;;5.70;5.30;;;1.30;99.90;;;1.87;62.17;98439.53;5234992;28;20227;-62
2023/02/27 08:26:44;;;;;;;5.57;5.13;;;1.60;99.90;;;2.23;63.00;98444.78;5234058;28;20202;-61
2023/02/27 08:29:17;;;;;;;6.47;5.70;;;1.90;99.90;;;2.03;60.71;98442.81;5245508;28;20293;-62
2023/02/27 08:31:50;;;;;;;5.50;5.10;;;1.70;99.90;;;2.33;60.35;98434.00;5236501;28;20689;-61
2023/02/27 08:34:24;;;;;;;5.33;5.03;;;2.00;99.90;;;2.42;59.70;98434.88;5229593;28;20205;-62
2023/02/27 08:36:57;;;;;;;5.60;5.20;;;2.20;99.70;;;1.64;60.38;98429.69;5228846;28;20229;-61
2023/02/27 08:39:31;;;;;;;5.60;5.20;;;1.60;99.50;;;1.84;61.10;98452.72;5227691;28;20296;-61
2023/02/27 08:42:05;;;;;;;5.67;5.23;;;1.60;99.90;;;2.00;61.07;98440.91;5239714;28;20683;-61
2023/02/27 08:44:39;;;;;;;5.97;5.37;;;1.70;99.90;;;1.38;62.10;98442.19;5236320;28;20286;-61
2023/02/27 08:47:12;;;;;;;5.83;5.37;;;1.30;99.90;;;1.46;61.80;98444.75;5226963;28;20232;-61
2023/02/27 08:49:45;;;;;;;5.90;5.27;;;1.40;99.90;;;1.76;62.22;98443.50;5229748;28;20202;-61
2023/02/27 08:52:18;;;;;;;4.97;4.67;;;1.60;99.90;;;1.63;61.28;98448.97;5242758;28;20207;-61
2023/02/27 08:54:51;;;;;;;5.53;5.10;;;1.50;99.90;;;1.72;61.28;98443.94;5239917;28;20203;-61
2023/02/27 08:57:25;;;;;;;5.30;4.97;;;1.60;99.70;;;1.57;60.69;98449.22;5237110;28;20669;-61
2023/02/27 08:59:58;;;;;;;5.80;5.30;;;1.50;99.60;;;1.51;61.30;98450.22;5242192;28;20251;-61
2023/02/27 09:02:32;;;;;;;5.70;5.20;;;1.50;99.60;;;1.57;61.03;98453.34;5243302;28;21302;-61
2023/02/27 09:05:06;;;;;;;5.97;5.40;;;1.50;99.60;;;1.50;60.41;98469.47;5243612;28;20640;-61
2023/02/27 09:07:39;;;;;;;5.27;4.87;;;1.60;99.20;;;1.94;59.63;98462.09;5242024;28;20695;-60
2023/02/27 09:10:12;;;;;;;5.63;5.27;;;1.70;99.10;;;2.30;59.33;98448.81;5244209;28;20194;-61
2023/02/27 09:12:48;;;;;;;5.53;5.03;;;2.10;99.10;;;2.67;58.30;98444.09;5243785;28;20562;-60
2023/02/27 09:15:21;;;;;;;5.20;4.80;;;2.40;98.50;;;3.01;56.85;98446.44;5239436;28;20253;-60
2023/02/27 09:17:57;;;;;;;6.00;5.50;;;2.80;97.90;;;2.88;56.94;98434.28;5240615;28;20590;-60
2023/02/27 09:20:31;;;;;;;5.37;4.97;;;2.70;97.30;;;2.52;57.19;98451.78;5239839;28;20218;-61
2023/02/27 09:23:04;;;;;;;5.90;5.47;;;2.50;97.30;;;2.39;57.45;98459.81;5237928;28;20193;-61
2023/02/27 09:25:37;;;;;;;5.57;5.23;;;2.30;97.60;;;2.47;58.09;98458.94;5239803;28;20577;-61
2023/02/27 09:28:12;;;;;;;6.00;5.50;;;2.30;97.60;;;2.57;58.81;98454.03;5244069;28;20229;-61
2023/02/27 09:30:45;;;;;;;6.50;5.33;;;2.30;98.50;;;2.67;56.76;98458.34;5233688;28;20759;-60
2023/02/27 09:33:18;;;;;;;5.87;5.37;;;2.50;97.10;;;2.29;56.18;98447.94;5237178;28;20207;-59
2023/02/27 09:35:51;;;;;;;5.80;5.17;;;2.20;96.40;;;2.37;55.45;98456.25;5240287;28;20209;-60
2023/02/27 09:38:25;;;;;;;5.40;4.90;;;2.20;96.60;;;2.53;57.07;98454.47;5230940;28;20230;-60
2023/02/27 09:41:00;;;;;;;5.37;4.97;;;2.30;97.20;;;2.70;55.58;98459.53;5232480;28;20222;-60
2023/02/27 09:43:40;;;;;;;4.90;4.50;;;2.50;96.60;;;2.91;54.94;98467.38;5230455;28;20198;-60
2023/02/27 09:46:18;;;;;;;5.77;5.27;;;2.70;96.40;;;2.74;54.06;98464.88;5237175;28;20593;-60
2023/02/27 09:48:55;;;;;;;5.23;4.83;;;2.70;95.50;;;2.86;54.32;98451.81;5235107;28;20318;-60
2023/02/27 09:51:29;;;;;;;4.37;4.00;;;2.70;95.70;;;3.11;53.33;98465.13;5228166;28;20207;-61
2023/02/27 09:54:04;;;;;;;4.63;4.23;;;3.10;95.10;;;2.99;53.25;98461.44;5245860;28;20571;-61
2023/02/27 09:56:46;;;;;;;4.67;4.37;;;2.90;94.90;;;2.82;53.70;98471.56;5236858;28;20202;-60
2023/02/27 09:59:34;;;;;;;4.97;4.57;;;2.80;95.10;;;2.82;54.64;98469.03;5237199;28;20534;-61
2023/02/27 10:02:30;;;;;;;5.57;4.73;;;2.60;95.40;;;3.02;54.63;98464.25;5243409;28;20222;-61
2023/02/27 10:05:17;;;;;;;5.53;5.03;;;2.80;95.50;;;3.19;53.08;98467.50;5238958;28;20250;-61
2023/02/27 10:07:59;;;;;;;4.93;4.50;;;3.20;94.60;;;3.03;52.69;98472.72;5242158;28;20637;-62
2023/02/27 10:10:41;;;;;;;4.80;4.40;;;3.10;94.60;;;3.27;53.76;98477.59;5238445;28;20199;-61
2023/02/27 10:13:34;;;;;;;4.93;4.53;;;3.20;94.90;;;3.31;53.36;98471.19;5242030;28;20211;-61
2023/02/27 10:16:13;;;;;;;4.40;4.10;;;3.20;95.00;;;3.16;52.54;98461.41;5240657;28;20198;-60
2023/02/27 10:18:56;;;;;;;5.30;4.60;;;3.20;93.90;;;3.24;52.47;98467.19;5239728;28;20739;-60
2023/02/27 10:21:34;;;;;;;4.83;4.43;;;3.20;94.10;;;3.33;51.31;98467.19;5238452;28;20304;-61
2023/02/27 10:24:26;;;;;;;4.37;4.00;;;3.40;93.70;;;3.65;51.76;98471.84;5237662;28;20192;-62
2023/02/27 10:27:04;;;;;;;4.70;4.37;;;3.50;93.60;;;3.57;51.08;98468.59;5246850;28;20242;-61
2023/02/27 10:29:39;;;;;;;4.87;4.57;;;3.50;93.10;;;3.77;50.52;98462.84;5237281;28;20243;-62
2023/02/27 10:32:20;;;;;;;5.37;4.97;;;3.60;92.90;;;4.07;50.11;98485.94;5234337;28;20636;-61
2023/02/27 10:34:58;;;;;;;4.80;4.40;;;3.80;93.20;;;3.91;47.97;98482.72;5240875;28;20657;-62
2023/02/27 10:37:31;;;;;;;4.93;4.53;;;3.90;91.50;;;3.15;48.92;98477.31;5241228;28;20236;-62
2023/02/27 10:40:07;;;;;;;5.07;4.67;;;3.30;91.70;;;3.46;50.42;98492.84;5243245;28;20643;-62
2023/02/27 10:42:40;;;;;;;4.37;4.07;;;3.40;92.50;;;3.62;47.95;98510.34;5237382;28;20699;-62
2023/02/27 10:45:15;;;;;;;4.60;4.30;;;3.60;91.40;;;3.51;49.35;98488.22;5235279;28;20200;-62
2023/02/27 10:47:50;;;;;;;4.60;4.20;;;3.40;91.70;;;3.73;49.07;98492.03;5236119;28;20247;-62
2023/02/27 10:50:27;;;;;;;4.67;4.30;;;3.60;92.00;;;3.59;48.05;98482.25;5233529;28;20196;-62
2023/02/27 10:53:03;;;;;;;4.70;4.30;;;3.60;91.20;;;3.35;48.54;98490.97;5233536;28;20222;-62
2023/02/27 10:55:38;;;;;;;4.50;4.20;;;3.50;91.30;;;3.74;48.59;98492.91;5230264;28;20290;-61
2023/02/27 10:58:19;;;;;;;4.90;4.60;;;3.60;91.60;;;4.03;48.18;98491.47;5237455;28;20703;-61
2023/02/27 11:00:56;;;;;;;4.67;4.30;;;3.90;91.40;;;3.94;47.70;98483.00;5247003;28;20236;-61
2023/02/27 11:03:35;;;;;;;4.53;4.23;;;3.80;90.80;;;4.09;46.86;98501.22;5237692;28;20291;-60
2023/02/27 11:06:21;;;;;;;4.73;4.43;;;3.90;90.70;;;3.97;46.71;98482.41;5231735;28;20611;-61